METAR Data
IDs: Format: Raw Decoded Include TAF

Data at: 1133 UTC 22 Jan 2022

METAR for:KHLB (Batesville Arpt, IN, US)
Text:KHLB 221115Z AUTO 00000KT 10SM CLR M14/M14 A3038 RMK A01
Temperature:-14.0°C ( 7°F)
Dewpoint:-14.0°C ( 7°F) [RH = 100%]
Pressure (altimeter):30.38 inches Hg (1028.9 mb)
Winds:calm
Visibility:10 or more sm (16+ km)
Ceiling:at least 12,000 feet AGL
Clouds:sky clear below 12,000 feet AGL
QC Flag:automated observation with no human augmentation
Text:KHLB 221055Z AUTO 00000KT 10SM CLR M14/M14 A3038 RMK A01
Temperature:-14.0°C ( 7°F)
Dewpoint:-14.0°C ( 7°F) [RH = 100%]
Pressure (altimeter):30.38 inches Hg (1028.9 mb)
Winds:calm
Visibility:10 or more sm (16+ km)
Ceiling:at least 12,000 feet AGL
Clouds:sky clear below 12,000 feet AGL
QC Flag:automated observation with no human augmentation
Text:KHLB 221035Z AUTO 00000KT 10SM CLR M14/M14 A3039 RMK A01
Temperature:-14.0°C ( 7°F)
Dewpoint:-14.0°C ( 7°F) [RH = 100%]
Pressure (altimeter):30.39 inches Hg (1029.2 mb)
Winds:calm
Visibility:10 or more sm (16+ km)
Ceiling:at least 12,000 feet AGL
Clouds:sky clear below 12,000 feet AGL
QC Flag:automated observation with no human augmentation
Text:KHLB 221015Z AUTO 00000KT 10SM CLR M14/M14 A3039 RMK A01
Temperature:-14.0°C ( 7°F)
Dewpoint:-14.0°C ( 7°F) [RH = 100%]
Pressure (altimeter):30.39 inches Hg (1029.2 mb)
Winds:calm
Visibility:10 or more sm (16+ km)
Ceiling:at least 12,000 feet AGL
Clouds:sky clear below 12,000 feet AGL
QC Flag:automated observation with no human augmentation
Text:KHLB 220955Z AUTO 00000KT 10SM CLR M14/M14 A3039 RMK A01
Temperature:-14.0°C ( 7°F)
Dewpoint:-14.0°C ( 7°F) [RH = 100%]
Pressure (altimeter):30.39 inches Hg (1029.2 mb)
Winds:calm
Visibility:10 or more sm (16+ km)
Ceiling:at least 12,000 feet AGL
Clouds:sky clear below 12,000 feet AGL
QC Flag:automated observation with no human augmentation
Text:KHLB 220935Z AUTO 00000KT 10SM CLR M14/M14 A3040 RMK A01
Temperature:-14.0°C ( 7°F)
Dewpoint:-14.0°C ( 7°F) [RH = 100%]
Pressure (altimeter):30.40 inches Hg (1029.5 mb)
Winds:calm
Visibility:10 or more sm (16+ km)
Ceiling:at least 12,000 feet AGL
Clouds:sky clear below 12,000 feet AGL
QC Flag:automated observation with no human augmentation
Text:KHLB 220915Z AUTO 00000KT 10SM CLR M14/M14 A3042 RMK A01
Temperature:-14.0°C ( 7°F)
Dewpoint:-14.0°C ( 7°F) [RH = 100%]
Pressure (altimeter):30.42 inches Hg (1030.2 mb)
Winds:calm
Visibility:10 or more sm (16+ km)
Ceiling:at least 12,000 feet AGL
Clouds:sky clear below 12,000 feet AGL
QC Flag:automated observation with no human augmentation
Text:KHLB 220855Z AUTO 00000KT 10SM CLR M14/M14 A3041 RMK A01
Temperature:-14.0°C ( 7°F)
Dewpoint:-14.0°C ( 7°F) [RH = 100%]
Pressure (altimeter):30.41 inches Hg (1029.9 mb)
Winds:calm
Visibility:10 or more sm (16+ km)
Ceiling:at least 12,000 feet AGL
Clouds:sky clear below 12,000 feet AGL
QC Flag:automated observation with no human augmentation
Text:KHLB 220835Z AUTO 00000KT 10SM CLR M14/M14 A3041 RMK A01
Temperature:-14.0°C ( 7°F)
Dewpoint:-14.0°C ( 7°F) [RH = 100%]
Pressure (altimeter):30.41 inches Hg (1029.9 mb)
Winds:calm
Visibility:10 or more sm (16+ km)
Ceiling:at least 12,000 feet AGL
Clouds:sky clear below 12,000 feet AGL
QC Flag:automated observation with no human augmentation
Text:KHLB 220815Z AUTO 00000KT 10SM CLR M13/M13 A3040 RMK A01
Temperature:-13.0°C ( 9°F)
Dewpoint:-13.0°C ( 9°F) [RH = 100%]
Pressure (altimeter):30.40 inches Hg (1029.5 mb)
Winds:calm
Visibility:10 or more sm (16+ km)
Ceiling:at least 12,000 feet AGL
Clouds:sky clear below 12,000 feet AGL
QC Flag:automated observation with no human augmentation
Text:KHLB 220755Z AUTO 00000KT 10SM CLR M13/M13 A3040 RMK A01
Temperature:-13.0°C ( 9°F)
Dewpoint:-13.0°C ( 9°F) [RH = 100%]
Pressure (altimeter):30.40 inches Hg (1029.5 mb)
Winds:calm
Visibility:10 or more sm (16+ km)
Ceiling:at least 12,000 feet AGL
Clouds:sky clear below 12,000 feet AGL
QC Flag:automated observation with no human augmentation
Text:KHLB 220735Z AUTO 00000KT 10SM CLR M14/M14 A3040 RMK A01
Temperature:-14.0°C ( 7°F)
Dewpoint:-14.0°C ( 7°F) [RH = 100%]
Pressure (altimeter):30.40 inches Hg (1029.5 mb)
Winds:calm
Visibility:10 or more sm (16+ km)
Ceiling:at least 12,000 feet AGL
Clouds:sky clear below 12,000 feet AGL
QC Flag:automated observation with no human augmentation
Text:KHLB 220715Z AUTO 00000KT 10SM CLR M14/M14 A3040 RMK A01
Temperature:-14.0°C ( 7°F)
Dewpoint:-14.0°C ( 7°F) [RH = 100%]
Pressure (altimeter):30.40 inches Hg (1029.5 mb)
Winds:calm
Visibility:10 or more sm (16+ km)
Ceiling:at least 12,000 feet AGL
Clouds:sky clear below 12,000 feet AGL
QC Flag:automated observation with no human augmentation
Text:KHLB 220655Z AUTO 00000KT 10SM CLR M13/M13 A3042 RMK A01
Temperature:-13.0°C ( 9°F)
Dewpoint:-13.0°C ( 9°F) [RH = 100%]
Pressure (altimeter):30.42 inches Hg (1030.2 mb)
Winds:calm
Visibility:10 or more sm (16+ km)
Ceiling:at least 12,000 feet AGL
Clouds:sky clear below 12,000 feet AGL
QC Flag:automated observation with no human augmentation
Text:KHLB 220635Z AUTO 00000KT 10SM CLR M13/M13 A3042 RMK A01
Temperature:-13.0°C ( 9°F)
Dewpoint:-13.0°C ( 9°F) [RH = 100%]
Pressure (altimeter):30.42 inches Hg (1030.2 mb)
Winds:calm
Visibility:10 or more sm (16+ km)
Ceiling:at least 12,000 feet AGL
Clouds:sky clear below 12,000 feet AGL
QC Flag:automated observation with no human augmentation
Text:KHLB 220615Z AUTO 00000KT 10SM CLR M13/M13 A3042 RMK A01
Temperature:-13.0°C ( 9°F)
Dewpoint:-13.0°C ( 9°F) [RH = 100%]
Pressure (altimeter):30.42 inches Hg (1030.2 mb)
Winds:calm
Visibility:10 or more sm (16+ km)
Ceiling:at least 12,000 feet AGL
Clouds:sky clear below 12,000 feet AGL
QC Flag:automated observation with no human augmentation
Text:KHLB 220555Z AUTO 00000KT 10SM CLR M13/M13 A3042 RMK A01
Temperature:-13.0°C ( 9°F)
Dewpoint:-13.0°C ( 9°F) [RH = 100%]
Pressure (altimeter):30.42 inches Hg (1030.2 mb)
Winds:calm
Visibility:10 or more sm (16+ km)
Ceiling:at least 12,000 feet AGL
Clouds:sky clear below 12,000 feet AGL
QC Flag:automated observation with no human augmentation
Text:KHLB 220535Z AUTO 00000KT 10SM CLR M13/M13 A3043 RMK A01
Temperature:-13.0°C ( 9°F)
Dewpoint:-13.0°C ( 9°F) [RH = 100%]
Pressure (altimeter):30.43 inches Hg (1030.6 mb)
Winds:calm
Visibility:10 or more sm (16+ km)
Ceiling:at least 12,000 feet AGL
Clouds:sky clear below 12,000 feet AGL
QC Flag:automated observation with no human augmentation
Text:KHLB 220515Z AUTO 00000KT 10SM CLR M12/M12 A3045 RMK A01
Temperature:-12.0°C ( 10°F)
Dewpoint:-12.0°C ( 10°F) [RH = 100%]
Pressure (altimeter):30.45 inches Hg (1031.2 mb)
Winds:calm
Visibility:10 or more sm (16+ km)
Ceiling:at least 12,000 feet AGL
Clouds:sky clear below 12,000 feet AGL
QC Flag:automated observation with no human augmentation
Text:KHLB 220455Z AUTO 00000KT 10SM CLR M12/M12 A3045 RMK A01
Temperature:-12.0°C ( 10°F)
Dewpoint:-12.0°C ( 10°F) [RH = 100%]
Pressure (altimeter):30.45 inches Hg (1031.2 mb)
Winds:calm
Visibility:10 or more sm (16+ km)
Ceiling:at least 12,000 feet AGL
Clouds:sky clear below 12,000 feet AGL
QC Flag:automated observation with no human augmentation
Text:KHLB 220435Z AUTO 00000KT 10SM FEW024 M12/M12 A3046 RMK A01
Temperature:-12.0°C ( 10°F)
Dewpoint:-12.0°C ( 10°F) [RH = 100%]
Pressure (altimeter):30.46 inches Hg (1031.6 mb)
Winds:calm
Visibility:10 or more sm (16+ km)
Ceiling:at least 12,000 feet AGL
Clouds: few clouds at 2400 feet AGL
QC Flag:automated observation with no human augmentation
Text:KHLB 220415Z AUTO 00000KT 10SM FEW023 M12/M12 A3046 RMK A01
Temperature:-12.0°C ( 10°F)
Dewpoint:-12.0°C ( 10°F) [RH = 100%]
Pressure (altimeter):30.46 inches Hg (1031.6 mb)
Winds:calm
Visibility:10 or more sm (16+ km)
Ceiling:at least 12,000 feet AGL
Clouds: few clouds at 2300 feet AGL
QC Flag:automated observation with no human augmentation
Text:KHLB 220355Z AUTO 00000KT 10SM CLR M12/M12 A3046 RMK A01
Temperature:-12.0°C ( 10°F)
Dewpoint:-12.0°C ( 10°F) [RH = 100%]
Pressure (altimeter):30.46 inches Hg (1031.6 mb)
Winds:calm
Visibility:10 or more sm (16+ km)
Ceiling:at least 12,000 feet AGL
Clouds:sky clear below 12,000 feet AGL
QC Flag:automated observation with no human augmentation
Text:KHLB 220335Z AUTO 00000KT 10SM FEW024 M11/M12 A3046 RMK A01
Temperature:-11.0°C ( 12°F)
Dewpoint:-12.0°C ( 10°F) [RH = 92%]
Pressure (altimeter):30.46 inches Hg (1031.6 mb)
Winds:calm
Visibility:10 or more sm (16+ km)
Ceiling:at least 12,000 feet AGL
Clouds: few clouds at 2400 feet AGL
QC Flag:automated observation with no human augmentation
Text:KHLB 220315Z AUTO 10003KT 10SM SCT024 M11/M11 A3046 RMK A01
Temperature:-11.0°C ( 12°F)
Dewpoint:-11.0°C ( 12°F) [RH = 100%]
Pressure (altimeter):30.46 inches Hg (1031.6 mb)
Winds:from the E (100 degrees) at 3 MPH (3 knots; 1.5 m/s)
Visibility:10 or more sm (16+ km)
Ceiling:at least 12,000 feet AGL
Clouds: scattered clouds at 2400 feet AGL
QC Flag:automated observation with no human augmentation
Text:KHLB 220255Z AUTO 00000KT 10SM SCT022 SCT027 M11/M13 A3047 RMK A01
Temperature:-11.0°C ( 12°F)
Dewpoint:-13.0°C ( 9°F) [RH = 85%]
Pressure (altimeter):30.47 inches Hg (1031.9 mb)
Winds:calm
Visibility:10 or more sm (16+ km)
Ceiling:at least 12,000 feet AGL
Clouds: scattered clouds at 2200 feet AGL, scattered clouds at 2700 feet AGL
QC Flag:automated observation with no human augmentation
Text:KHLB 220235Z AUTO 10003KT 10SM SCT024 M10/M14 A3047 RMK A01
Temperature:-10.0°C ( 14°F)
Dewpoint:-14.0°C ( 7°F) [RH = 72%]
Pressure (altimeter):30.47 inches Hg (1031.9 mb)
Winds:from the E (100 degrees) at 3 MPH (3 knots; 1.5 m/s)
Visibility:10 or more sm (16+ km)
Ceiling:at least 12,000 feet AGL
Clouds: scattered clouds at 2400 feet AGL
QC Flag:automated observation with no human augmentation
Text:KHLB 220215Z AUTO 00000KT 10SM FEW025 M09/M14 A3047 RMK A01
Temperature: -9.0°C ( 16°F)
Dewpoint:-14.0°C ( 7°F) [RH = 67%]
Pressure (altimeter):30.47 inches Hg (1031.9 mb)
Winds:calm
Visibility:10 or more sm (16+ km)
Ceiling:at least 12,000 feet AGL
Clouds: few clouds at 2500 feet AGL
QC Flag:automated observation with no human augmentation
Text:KHLB 220155Z AUTO 08004KT 10SM FEW025 M10/M13 A3046 RMK A01
Temperature:-10.0°C ( 14°F)
Dewpoint:-13.0°C ( 9°F) [RH = 79%]
Pressure (altimeter):30.46 inches Hg (1031.6 mb)
Winds:from the E (80 degrees) at 5 MPH (4 knots; 2.1 m/s)
Visibility:10 or more sm (16+ km)
Ceiling:at least 12,000 feet AGL
Clouds: few clouds at 2500 feet AGL
QC Flag:automated observation with no human augmentation
Text:KHLB 220135Z AUTO 10004KT 10SM SCT025 M10/M13 A3046 RMK A01
Temperature:-10.0°C ( 14°F)
Dewpoint:-13.0°C ( 9°F) [RH = 79%]
Pressure (altimeter):30.46 inches Hg (1031.6 mb)
Winds:from the E (100 degrees) at 5 MPH (4 knots; 2.1 m/s)
Visibility:10 or more sm (16+ km)
Ceiling:at least 12,000 feet AGL
Clouds: scattered clouds at 2500 feet AGL
QC Flag:automated observation with no human augmentation
Text:KHLB 220115Z AUTO 10003KT 10SM BKN025 BKN029 M08/M14 A3047 RMK A01
Temperature: -8.0°C ( 18°F)
Dewpoint:-14.0°C ( 7°F) [RH = 62%]
Pressure (altimeter):30.47 inches Hg (1031.9 mb)
Winds:from the E (100 degrees) at 3 MPH (3 knots; 1.5 m/s)
Visibility:10 or more sm (16+ km)
Ceiling:2500 feet AGL
Clouds: broken clouds at 2500 feet AGL, broken clouds at 2900 feet AGL
QC Flag:automated observation with no human augmentation
Text:KHLB 220055Z AUTO 00000KT 10SM BKN025 BKN029 M09/M14 A3047 RMK A01
Temperature: -9.0°C ( 16°F)
Dewpoint:-14.0°C ( 7°F) [RH = 67%]
Pressure (altimeter):30.47 inches Hg (1031.9 mb)
Winds:calm
Visibility:10 or more sm (16+ km)
Ceiling:2500 feet AGL
Clouds: broken clouds at 2500 feet AGL, broken clouds at 2900 feet AGL
QC Flag:automated observation with no human augmentation
Text:KHLB 220035Z AUTO 09004KT 10SM OVC028 M08/M14 A3047 RMK A01
Temperature: -8.0°C ( 18°F)
Dewpoint:-14.0°C ( 7°F) [RH = 62%]
Pressure (altimeter):30.47 inches Hg (1031.9 mb)
Winds:from the E (90 degrees) at 5 MPH (4 knots; 2.1 m/s)
Visibility:10 or more sm (16+ km)
Ceiling:2800 feet AGL
Clouds: overcast cloud deck at 2800 feet AGL
QC Flag:automated observation with no human augmentation
Text:KHLB 220015Z AUTO 05003KT 10SM BKN028 M08/M13 A3047 RMK A01
Temperature: -8.0°C ( 18°F)
Dewpoint:-13.0°C ( 9°F) [RH = 67%]
Pressure (altimeter):30.47 inches Hg (1031.9 mb)
Winds:from the NE (50 degrees) at 3 MPH (3 knots; 1.5 m/s)
Visibility:10 or more sm (16+ km)
Ceiling:2800 feet AGL
Clouds: broken clouds at 2800 feet AGL
QC Flag:automated observation with no human augmentation
Text:KHLB 212355Z AUTO 07003KT 10SM BKN029 OVC033 M08/M14 A3047 RMK A01
Temperature: -8.0°C ( 18°F)
Dewpoint:-14.0°C ( 7°F) [RH = 62%]
Pressure (altimeter):30.47 inches Hg (1031.9 mb)
Winds:from the ENE (70 degrees) at 3 MPH (3 knots; 1.5 m/s)
Visibility:10 or more sm (16+ km)
Ceiling:2900 feet AGL
Clouds: broken clouds at 2900 feet AGL, overcast cloud deck at 3300 feet AGL
QC Flag:automated observation with no human augmentation
Text:KHLB 212335Z AUTO 06003KT 10SM SCT029 BKN033 M08/M14 A3047 RMK A01
Temperature: -8.0°C ( 18°F)
Dewpoint:-14.0°C ( 7°F) [RH = 62%]
Pressure (altimeter):30.47 inches Hg (1031.9 mb)
Winds:from the ENE (60 degrees) at 3 MPH (3 knots; 1.5 m/s)
Visibility:10 or more sm (16+ km)
Ceiling:3300 feet AGL
Clouds: scattered clouds at 2900 feet AGL, broken clouds at 3300 feet AGL
QC Flag:automated observation with no human augmentation
Text:KHLB 212315Z AUTO 05004KT 10SM CLR M07/M14 A3047 RMK A01
Temperature: -7.0°C ( 19°F)
Dewpoint:-14.0°C ( 7°F) [RH = 57%]
Pressure (altimeter):30.47 inches Hg (1031.9 mb)
Winds:from the NE (50 degrees) at 5 MPH (4 knots; 2.1 m/s)
Visibility:10 or more sm (16+ km)
Ceiling:at least 12,000 feet AGL
Clouds:sky clear below 12,000 feet AGL
QC Flag:automated observation with no human augmentation
Text:KHLB 212255Z AUTO 07004KT 10SM CLR M07/M13 A3046 RMK A01
Temperature: -7.0°C ( 19°F)
Dewpoint:-13.0°C ( 9°F) [RH = 62%]
Pressure (altimeter):30.46 inches Hg (1031.6 mb)
Winds:from the ENE (70 degrees) at 5 MPH (4 knots; 2.1 m/s)
Visibility:10 or more sm (16+ km)
Ceiling:at least 12,000 feet AGL
Clouds:sky clear below 12,000 feet AGL
QC Flag:automated observation with no human augmentation
Text:KHLB 212235Z AUTO 06006KT 10SM CLR M06/M14 A3046 RMK A01
Temperature: -6.0°C ( 21°F)
Dewpoint:-14.0°C ( 7°F) [RH = 53%]
Pressure (altimeter):30.46 inches Hg (1031.6 mb)
Winds:from the ENE (60 degrees) at 7 MPH (6 knots; 3.1 m/s)
Visibility:10 or more sm (16+ km)
Ceiling:at least 12,000 feet AGL
Clouds:sky clear below 12,000 feet AGL
QC Flag:automated observation with no human augmentation
Text:KHLB 212215Z AUTO 07006KT 10SM CLR M06/M14 A3046 RMK A01
Temperature: -6.0°C ( 21°F)
Dewpoint:-14.0°C ( 7°F) [RH = 53%]
Pressure (altimeter):30.46 inches Hg (1031.6 mb)
Winds:from the ENE (70 degrees) at 7 MPH (6 knots; 3.1 m/s)
Visibility:10 or more sm (16+ km)
Ceiling:at least 12,000 feet AGL
Clouds:sky clear below 12,000 feet AGL
QC Flag:automated observation with no human augmentation
Text:KHLB 212155Z AUTO 05007KT 10SM CLR M05/M14 A3046 RMK A01
Temperature: -5.0°C ( 23°F)
Dewpoint:-14.0°C ( 7°F) [RH = 49%]
Pressure (altimeter):30.46 inches Hg (1031.6 mb)
Winds:from the NE (50 degrees) at 8 MPH (7 knots; 3.6 m/s)
Visibility:10 or more sm (16+ km)
Ceiling:at least 12,000 feet AGL
Clouds:sky clear below 12,000 feet AGL
QC Flag:automated observation with no human augmentation
Text:KHLB 212135Z AUTO 08008KT 10SM CLR M05/M14 A3046 RMK A01
Temperature: -5.0°C ( 23°F)
Dewpoint:-14.0°C ( 7°F) [RH = 49%]
Pressure (altimeter):30.46 inches Hg (1031.6 mb)
Winds:from the E (80 degrees) at 9 MPH (8 knots; 4.1 m/s)
Visibility:10 or more sm (16+ km)
Ceiling:at least 12,000 feet AGL
Clouds:sky clear below 12,000 feet AGL
QC Flag:automated observation with no human augmentation
Text:KHLB 212115Z AUTO VRB05G10KT 10SM CLR M05/M14 A3047 RMK A01
Temperature: -5.0°C ( 23°F)
Dewpoint:-14.0°C ( 7°F) [RH = 49%]
Pressure (altimeter):30.47 inches Hg (1031.9 mb)
Winds:variable direction winds at 6 MPH (5 knots; 2.6 m/s) gusting to 12 MPH (10 knots; 5.1 m/s)
Visibility:10 or more sm (16+ km)
Ceiling:at least 12,000 feet AGL
Clouds:sky clear below 12,000 feet AGL
QC Flag:automated observation with no human augmentation
Text:KHLB 212055Z AUTO 08007KT 10SM CLR M05/M14 A3047 RMK A01
Temperature: -5.0°C ( 23°F)
Dewpoint:-14.0°C ( 7°F) [RH = 49%]
Pressure (altimeter):30.47 inches Hg (1031.9 mb)
Winds:from the E (80 degrees) at 8 MPH (7 knots; 3.6 m/s)
Visibility:10 or more sm (16+ km)
Ceiling:at least 12,000 feet AGL
Clouds:sky clear below 12,000 feet AGL
QC Flag:automated observation with no human augmentation
Text:KHLB 212035Z AUTO 05009KT 10SM CLR M05/M13 A3046 RMK A01
Temperature: -5.0°C ( 23°F)
Dewpoint:-13.0°C ( 9°F) [RH = 53%]
Pressure (altimeter):30.46 inches Hg (1031.6 mb)
Winds:from the NE (50 degrees) at 10 MPH (9 knots; 4.6 m/s)
Visibility:10 or more sm (16+ km)
Ceiling:at least 12,000 feet AGL
Clouds:sky clear below 12,000 feet AGL
QC Flag:automated observation with no human augmentation
Text:KHLB 212015Z AUTO 09005G11KT 10SM CLR M05/M13 A3046 RMK A01
Temperature: -5.0°C ( 23°F)
Dewpoint:-13.0°C ( 9°F) [RH = 53%]
Pressure (altimeter):30.46 inches Hg (1031.6 mb)
Winds:from the E (90 degrees) at 6 MPH (5 knots; 2.6 m/s) gusting to 13 MPH (11 knots; 5.7 m/s)
Visibility:10 or more sm (16+ km)
Ceiling:at least 12,000 feet AGL
Clouds:sky clear below 12,000 feet AGL
QC Flag:automated observation with no human augmentation
Text:KHLB 211955Z AUTO 06004KT 10SM CLR M05/M14 A3046 RMK A01
Temperature: -5.0°C ( 23°F)
Dewpoint:-14.0°C ( 7°F) [RH = 49%]
Pressure (altimeter):30.46 inches Hg (1031.6 mb)
Winds:from the ENE (60 degrees) at 5 MPH (4 knots; 2.1 m/s)
Visibility:10 or more sm (16+ km)
Ceiling:at least 12,000 feet AGL
Clouds:sky clear below 12,000 feet AGL
QC Flag:automated observation with no human augmentation
Text:KHLB 211935Z AUTO 08006KT 10SM SCT032 M06/M13 A3047 RMK A01
Temperature: -6.0°C ( 21°F)
Dewpoint:-13.0°C ( 9°F) [RH = 58%]
Pressure (altimeter):30.47 inches Hg (1031.9 mb)
Winds:from the E (80 degrees) at 7 MPH (6 knots; 3.1 m/s)
Visibility:10 or more sm (16+ km)
Ceiling:at least 12,000 feet AGL
Clouds: scattered clouds at 3200 feet AGL
QC Flag:automated observation with no human augmentation
Text:KHLB 211915Z AUTO 04009KT 10SM OVC032 M05/M13 A3047 RMK A01
Temperature: -5.0°C ( 23°F)
Dewpoint:-13.0°C ( 9°F) [RH = 53%]
Pressure (altimeter):30.47 inches Hg (1031.9 mb)
Winds:from the NE (40 degrees) at 10 MPH (9 knots; 4.6 m/s)
Visibility:10 or more sm (16+ km)
Ceiling:3200 feet AGL
Clouds: overcast cloud deck at 3200 feet AGL
QC Flag:automated observation with no human augmentation
Text:KHLB 211855Z AUTO 06005G11KT 10SM OVC033 M05/M13 A3048 RMK A01
Temperature: -5.0°C ( 23°F)
Dewpoint:-13.0°C ( 9°F) [RH = 53%]
Pressure (altimeter):30.48 inches Hg (1032.3 mb)
Winds:from the ENE (60 degrees) at 6 MPH (5 knots; 2.6 m/s) gusting to 13 MPH (11 knots; 5.7 m/s)
Visibility:10 or more sm (16+ km)
Ceiling:3300 feet AGL
Clouds: overcast cloud deck at 3300 feet AGL
QC Flag:automated observation with no human augmentation
Text:KHLB 211835Z AUTO 12009KT 10SM OVC032 M05/M13 A3048 RMK A01
Temperature: -5.0°C ( 23°F)
Dewpoint:-13.0°C ( 9°F) [RH = 53%]
Pressure (altimeter):30.48 inches Hg (1032.3 mb)
Winds:from the ESE (120 degrees) at 10 MPH (9 knots; 4.6 m/s)
Visibility:10 or more sm (16+ km)
Ceiling:3200 feet AGL
Clouds: overcast cloud deck at 3200 feet AGL
QC Flag:automated observation with no human augmentation
Text:KHLB 211815Z AUTO 10007KT 10SM OVC031 M06/M13 A3049 RMK A01
Temperature: -6.0°C ( 21°F)
Dewpoint:-13.0°C ( 9°F) [RH = 58%]
Pressure (altimeter):30.49 inches Hg (1032.6 mb)
Winds:from the E (100 degrees) at 8 MPH (7 knots; 3.6 m/s)
Visibility:10 or more sm (16+ km)
Ceiling:3100 feet AGL
Clouds: overcast cloud deck at 3100 feet AGL
QC Flag:automated observation with no human augmentation
Text:KHLB 211755Z AUTO 07006G12KT 10SM OVC031 M06/M13 A3050 RMK A01
Temperature: -6.0°C ( 21°F)
Dewpoint:-13.0°C ( 9°F) [RH = 58%]
Pressure (altimeter):30.50 inches Hg (1032.9 mb)
Winds:from the ENE (70 degrees) at 7 MPH (6 knots; 3.1 m/s) gusting to 14 MPH (12 knots; 6.2 m/s)
Visibility:10 or more sm (16+ km)
Ceiling:3100 feet AGL
Clouds: overcast cloud deck at 3100 feet AGL
QC Flag:automated observation with no human augmentation
Text:KHLB 211735Z AUTO 09010KT 10SM OVC031 M06/M13 A3051 RMK A01
Temperature: -6.0°C ( 21°F)
Dewpoint:-13.0°C ( 9°F) [RH = 58%]
Pressure (altimeter):30.51 inches Hg (1033.3 mb)
Winds:from the E (90 degrees) at 12 MPH (10 knots; 5.1 m/s)
Visibility:10 or more sm (16+ km)
Ceiling:3100 feet AGL
Clouds: overcast cloud deck at 3100 feet AGL
QC Flag:automated observation with no human augmentation
Text:KHLB 211715Z AUTO 05009KT 10SM OVC031 M06/M13 A3051 RMK A01
Temperature: -6.0°C ( 21°F)
Dewpoint:-13.0°C ( 9°F) [RH = 58%]
Pressure (altimeter):30.51 inches Hg (1033.3 mb)
Winds:from the NE (50 degrees) at 10 MPH (9 knots; 4.6 m/s)
Visibility:10 or more sm (16+ km)
Ceiling:3100 feet AGL
Clouds: overcast cloud deck at 3100 feet AGL
QC Flag:automated observation with no human augmentation
Text:KHLB 211655Z AUTO 09005KT 10SM OVC030 M07/M13 A3052 RMK A01
Temperature: -7.0°C ( 19°F)
Dewpoint:-13.0°C ( 9°F) [RH = 62%]
Pressure (altimeter):30.52 inches Hg (1033.6 mb)
Winds:from the E (90 degrees) at 6 MPH (5 knots; 2.6 m/s)
Visibility:10 or more sm (16+ km)
Ceiling:3000 feet AGL
Clouds: overcast cloud deck at 3000 feet AGL
QC Flag:automated observation with no human augmentation
Text:KHLB 211635Z AUTO 07007KT 10SM OVC030 M07/M13 A3053 RMK A01
Temperature: -7.0°C ( 19°F)
Dewpoint:-13.0°C ( 9°F) [RH = 62%]
Pressure (altimeter):30.53 inches Hg (1033.9 mb)
Winds:from the ENE (70 degrees) at 8 MPH (7 knots; 3.6 m/s)
Visibility:10 or more sm (16+ km)
Ceiling:3000 feet AGL
Clouds: overcast cloud deck at 3000 feet AGL
QC Flag:automated observation with no human augmentation
Text:KHLB 211615Z AUTO 05009KT 10SM OVC029 M07/M13 A3053 RMK A01
Temperature: -7.0°C ( 19°F)
Dewpoint:-13.0°C ( 9°F) [RH = 62%]
Pressure (altimeter):30.53 inches Hg (1033.9 mb)
Winds:from the NE (50 degrees) at 10 MPH (9 knots; 4.6 m/s)
Visibility:10 or more sm (16+ km)
Ceiling:2900 feet AGL
Clouds: overcast cloud deck at 2900 feet AGL
QC Flag:automated observation with no human augmentation
Text:KHLB 211555Z AUTO 07010KT 10SM FEW018 OVC028 M07/M13 A3053 RMK A01
Temperature: -7.0°C ( 19°F)
Dewpoint:-13.0°C ( 9°F) [RH = 62%]
Pressure (altimeter):30.53 inches Hg (1033.9 mb)
Winds:from the ENE (70 degrees) at 12 MPH (10 knots; 5.1 m/s)
Visibility:10 or more sm (16+ km)
Ceiling:2800 feet AGL
Clouds: few clouds at 1800 feet AGL, overcast cloud deck at 2800 feet AGL
QC Flag:automated observation with no human augmentation
Text:KHLB 211535Z AUTO 06009KT 10SM OVC028 M07/M13 A3053 RMK A01
Temperature: -7.0°C ( 19°F)
Dewpoint:-13.0°C ( 9°F) [RH = 62%]
Pressure (altimeter):30.53 inches Hg (1033.9 mb)
Winds:from the ENE (60 degrees) at 10 MPH (9 knots; 4.6 m/s)
Visibility:10 or more sm (16+ km)
Ceiling:2800 feet AGL
Clouds: overcast cloud deck at 2800 feet AGL
QC Flag:automated observation with no human augmentation
Text:KHLB 211515Z AUTO 07008KT 10SM FEW021 OVC029 M08/M13 A3053 RMK A01
Temperature: -8.0°C ( 18°F)
Dewpoint:-13.0°C ( 9°F) [RH = 67%]
Pressure (altimeter):30.53 inches Hg (1033.9 mb)
Winds:from the ENE (70 degrees) at 9 MPH (8 knots; 4.1 m/s)
Visibility:10 or more sm (16+ km)
Ceiling:2900 feet AGL
Clouds: few clouds at 2100 feet AGL, overcast cloud deck at 2900 feet AGL
QC Flag:automated observation with no human augmentation
Text:KHLB 211455Z AUTO 09010KT 10SM SCT021 BKN026 OVC038 M08/M13 A3052 RMK A01
Temperature: -8.0°C ( 18°F)
Dewpoint:-13.0°C ( 9°F) [RH = 67%]
Pressure (altimeter):30.52 inches Hg (1033.6 mb)
Winds:from the E (90 degrees) at 12 MPH (10 knots; 5.1 m/s)
Visibility:10 or more sm (16+ km)
Ceiling:2600 feet AGL
Clouds: scattered clouds at 2100 feet AGL, broken clouds at 2600 feet AGL, overcast cloud deck at 3800 feet AGL
QC Flag:automated observation with no human augmentation
Text:KHLB 211435Z AUTO 06010KT 10SM FEW022 BKN028 OVC037 M07/M13 A3053 RMK A01
Temperature: -7.0°C ( 19°F)
Dewpoint:-13.0°C ( 9°F) [RH = 62%]
Pressure (altimeter):30.53 inches Hg (1033.9 mb)
Winds:from the ENE (60 degrees) at 12 MPH (10 knots; 5.1 m/s)
Visibility:10 or more sm (16+ km)
Ceiling:2800 feet AGL
Clouds: few clouds at 2200 feet AGL, broken clouds at 2800 feet AGL, overcast cloud deck at 3700 feet AGL
QC Flag:automated observation with no human augmentation
Text:KHLB 211415Z AUTO 06012KT 10SM SCT026 BKN032 OVC039 M08/M13 A3053 RMK A01
Temperature: -8.0°C ( 18°F)
Dewpoint:-13.0°C ( 9°F) [RH = 67%]
Pressure (altimeter):30.53 inches Hg (1033.9 mb)
Winds:from the ENE (60 degrees) at 14 MPH (12 knots; 6.2 m/s)
Visibility:10 or more sm (16+ km)
Ceiling:3200 feet AGL
Clouds: scattered clouds at 2600 feet AGL, broken clouds at 3200 feet AGL, overcast cloud deck at 3900 feet AGL
QC Flag:automated observation with no human augmentation
Text:KHLB 211355Z AUTO 05010KT 10SM FEW027 OVC035 M08/M12 A3052 RMK A01
Temperature: -8.0°C ( 18°F)
Dewpoint:-12.0°C ( 10°F) [RH = 73%]
Pressure (altimeter):30.52 inches Hg (1033.6 mb)
Winds:from the NE (50 degrees) at 12 MPH (10 knots; 5.1 m/s)
Visibility:10 or more sm (16+ km)
Ceiling:3500 feet AGL
Clouds: few clouds at 2700 feet AGL, overcast cloud deck at 3500 feet AGL
QC Flag:automated observation with no human augmentation
Text:KHLB 211335Z AUTO 04008KT 10SM OVC034 M08/M13 A3052 RMK A01
Temperature: -8.0°C ( 18°F)
Dewpoint:-13.0°C ( 9°F) [RH = 67%]
Pressure (altimeter):30.52 inches Hg (1033.6 mb)
Winds:from the NE (40 degrees) at 9 MPH (8 knots; 4.1 m/s)
Visibility:10 or more sm (16+ km)
Ceiling:3400 feet AGL
Clouds: overcast cloud deck at 3400 feet AGL
QC Flag:automated observation with no human augmentation
Text:KHLB 211315Z AUTO 04005KT 10SM OVC032 M08/M13 A3051 RMK A01
Temperature: -8.0°C ( 18°F)
Dewpoint:-13.0°C ( 9°F) [RH = 67%]
Pressure (altimeter):30.51 inches Hg (1033.3 mb)
Winds:from the NE (40 degrees) at 6 MPH (5 knots; 2.6 m/s)
Visibility:10 or more sm (16+ km)
Ceiling:3200 feet AGL
Clouds: overcast cloud deck at 3200 feet AGL
QC Flag:automated observation with no human augmentation
Text:KHLB 211255Z AUTO 05004KT 10SM OVC031 M08/M13 A3051 RMK A01
Temperature: -8.0°C ( 18°F)
Dewpoint:-13.0°C ( 9°F) [RH = 67%]
Pressure (altimeter):30.51 inches Hg (1033.3 mb)
Winds:from the NE (50 degrees) at 5 MPH (4 knots; 2.1 m/s)
Visibility:10 or more sm (16+ km)
Ceiling:3100 feet AGL
Clouds: overcast cloud deck at 3100 feet AGL
QC Flag:automated observation with no human augmentation
Text:KHLB 211235Z AUTO 03004KT 10SM OVC031 M09/M13 A3051 RMK A01
Temperature: -9.0°C ( 16°F)
Dewpoint:-13.0°C ( 9°F) [RH = 73%]
Pressure (altimeter):30.51 inches Hg (1033.3 mb)
Winds:from the NNE (30 degrees) at 5 MPH (4 knots; 2.1 m/s)
Visibility:10 or more sm (16+ km)
Ceiling:3100 feet AGL
Clouds: overcast cloud deck at 3100 feet AGL
QC Flag:automated observation with no human augmentation
Text:KHLB 211215Z AUTO 00000KT 10SM OVC030 M09/M13 A3051 RMK A01
Temperature: -9.0°C ( 16°F)
Dewpoint:-13.0°C ( 9°F) [RH = 73%]
Pressure (altimeter):30.51 inches Hg (1033.3 mb)
Winds:calm
Visibility:10 or more sm (16+ km)
Ceiling:3000 feet AGL
Clouds: overcast cloud deck at 3000 feet AGL
QC Flag:automated observation with no human augmentation
Text:KHLB 211155Z AUTO 03004KT 10SM OVC029 M09/M13 A3050 RMK A01
Temperature: -9.0°C ( 16°F)
Dewpoint:-13.0°C ( 9°F) [RH = 73%]
Pressure (altimeter):30.50 inches Hg (1032.9 mb)
Winds:from the NNE (30 degrees) at 5 MPH (4 knots; 2.1 m/s)
Visibility:10 or more sm (16+ km)
Ceiling:2900 feet AGL
Clouds: overcast cloud deck at 2900 feet AGL
QC Flag:automated observation with no human augmentation
Text:KHLB 211135Z AUTO 00000KT 10SM OVC031 M09/M14 A3049 RMK A01
Temperature: -9.0°C ( 16°F)
Dewpoint:-14.0°C ( 7°F) [RH = 67%]
Pressure (altimeter):30.49 inches Hg (1032.6 mb)
Winds:calm
Visibility:10 or more sm (16+ km)
Ceiling:3100 feet AGL
Clouds: overcast cloud deck at 3100 feet AGL
QC Flag:automated observation with no human augmentation
Text:KHLB 211115Z AUTO 00000KT 10SM OVC031 M09/M14 A3048 RMK A01
Temperature: -9.0°C ( 16°F)
Dewpoint:-14.0°C ( 7°F) [RH = 67%]
Pressure (altimeter):30.48 inches Hg (1032.3 mb)
Winds:calm
Visibility:10 or more sm (16+ km)
Ceiling:3100 feet AGL
Clouds: overcast cloud deck at 3100 feet AGL
QC Flag:automated observation with no human augmentation
Text:KHLB 211055Z AUTO 00000KT 10SM OVC031 M09/M14 A3048 RMK A01
Temperature: -9.0°C ( 16°F)
Dewpoint:-14.0°C ( 7°F) [RH = 67%]
Pressure (altimeter):30.48 inches Hg (1032.3 mb)
Winds:calm
Visibility:10 or more sm (16+ km)
Ceiling:3100 feet AGL
Clouds: overcast cloud deck at 3100 feet AGL
QC Flag:automated observation with no human augmentation
Text:KHLB 211035Z AUTO 35004KT 10SM OVC032 M09/M15 A3048 RMK A01
Temperature: -9.0°C ( 16°F)
Dewpoint:-15.0°C ( 5°F) [RH = 62%]
Pressure (altimeter):30.48 inches Hg (1032.3 mb)
Winds:from the N (350 degrees) at 5 MPH (4 knots; 2.1 m/s)
Visibility:10 or more sm (16+ km)
Ceiling:3200 feet AGL
Clouds: overcast cloud deck at 3200 feet AGL
QC Flag:automated observation with no human augmentation
Text:KHLB 211015Z AUTO 00000KT 10SM OVC032 M09/M15 A3048 RMK A01
Temperature: -9.0°C ( 16°F)
Dewpoint:-15.0°C ( 5°F) [RH = 62%]
Pressure (altimeter):30.48 inches Hg (1032.3 mb)
Winds:calm
Visibility:10 or more sm (16+ km)
Ceiling:3200 feet AGL
Clouds: overcast cloud deck at 3200 feet AGL
QC Flag:automated observation with no human augmentation
Text:KHLB 210955Z AUTO 02003KT 10SM OVC033 M09/M15 A3048 RMK A01
Temperature: -9.0°C ( 16°F)
Dewpoint:-15.0°C ( 5°F) [RH = 62%]
Pressure (altimeter):30.48 inches Hg (1032.3 mb)
Winds:from the NNE (20 degrees) at 3 MPH (3 knots; 1.5 m/s)
Visibility:10 or more sm (16+ km)
Ceiling:3300 feet AGL
Clouds: overcast cloud deck at 3300 feet AGL
QC Flag:automated observation with no human augmentation
Text:KHLB 210935Z AUTO VRB05KT 10SM OVC034 M09/M15 A3047 RMK A01
Temperature: -9.0°C ( 16°F)
Dewpoint:-15.0°C ( 5°F) [RH = 62%]
Pressure (altimeter):30.47 inches Hg (1031.9 mb)
Winds:variable direction winds at 6 MPH (5 knots; 2.6 m/s)
Visibility:10 or more sm (16+ km)
Ceiling:3400 feet AGL
Clouds: overcast cloud deck at 3400 feet AGL
QC Flag:automated observation with no human augmentation
Text:KHLB 210915Z AUTO 00000KT 10SM OVC033 M09/M15 A3047 RMK A01
Temperature: -9.0°C ( 16°F)
Dewpoint:-15.0°C ( 5°F) [RH = 62%]
Pressure (altimeter):30.47 inches Hg (1031.9 mb)
Winds:calm
Visibility:10 or more sm (16+ km)
Ceiling:3300 feet AGL
Clouds: overcast cloud deck at 3300 feet AGL
QC Flag:automated observation with no human augmentation
Text:KHLB 210855Z AUTO 02004KT 10SM OVC033 M09/M15 A3047 RMK A01
Temperature: -9.0°C ( 16°F)
Dewpoint:-15.0°C ( 5°F) [RH = 62%]
Pressure (altimeter):30.47 inches Hg (1031.9 mb)
Winds:from the NNE (20 degrees) at 5 MPH (4 knots; 2.1 m/s)
Visibility:10 or more sm (16+ km)
Ceiling:3300 feet AGL
Clouds: overcast cloud deck at 3300 feet AGL
QC Flag:automated observation with no human augmentation
Text:KHLB 210835Z AUTO 00000KT 10SM OVC034 M10/M14 A3047 RMK A01
Temperature:-10.0°C ( 14°F)
Dewpoint:-14.0°C ( 7°F) [RH = 72%]
Pressure (altimeter):30.47 inches Hg (1031.9 mb)
Winds:calm
Visibility:10 or more sm (16+ km)
Ceiling:3400 feet AGL
Clouds: overcast cloud deck at 3400 feet AGL
QC Flag:automated observation with no human augmentation
Text:KHLB 210815Z AUTO 00000KT 10SM OVC038 M10/M15 A3047 RMK A01
Temperature:-10.0°C ( 14°F)
Dewpoint:-15.0°C ( 5°F) [RH = 67%]
Pressure (altimeter):30.47 inches Hg (1031.9 mb)
Winds:calm
Visibility:10 or more sm (16+ km)
Ceiling:3800 feet AGL
Clouds: overcast cloud deck at 3800 feet AGL
QC Flag:automated observation with no human augmentation
Text:KHLB 210755Z AUTO 03004KT 10SM OVC039 M10/M15 A3048 RMK A01
Temperature:-10.0°C ( 14°F)
Dewpoint:-15.0°C ( 5°F) [RH = 67%]
Pressure (altimeter):30.48 inches Hg (1032.3 mb)
Winds:from the NNE (30 degrees) at 5 MPH (4 knots; 2.1 m/s)
Visibility:10 or more sm (16+ km)
Ceiling:3900 feet AGL
Clouds: overcast cloud deck at 3900 feet AGL
QC Flag:automated observation with no human augmentation
Text:KHLB 210735Z AUTO 03003KT 10SM OVC039 M09/M16 A3047 RMK A01
Temperature: -9.0°C ( 16°F)
Dewpoint:-16.0°C ( 3°F) [RH = 57%]
Pressure (altimeter):30.47 inches Hg (1031.9 mb)
Winds:from the NNE (30 degrees) at 3 MPH (3 knots; 1.5 m/s)
Visibility:10 or more sm (16+ km)
Ceiling:3900 feet AGL
Clouds: overcast cloud deck at 3900 feet AGL
QC Flag:automated observation with no human augmentation
Text:KHLB 210715Z AUTO 04004KT 10SM OVC037 M09/M16 A3047 RMK A01
Temperature: -9.0°C ( 16°F)
Dewpoint:-16.0°C ( 3°F) [RH = 57%]
Pressure (altimeter):30.47 inches Hg (1031.9 mb)
Winds:from the NE (40 degrees) at 5 MPH (4 knots; 2.1 m/s)
Visibility:10 or more sm (16+ km)
Ceiling:3700 feet AGL
Clouds: overcast cloud deck at 3700 feet AGL
QC Flag:automated observation with no human augmentation
Text:KHLB 210655Z AUTO 05006KT 10SM OVC037 M09/M16 A3048 RMK A01
Temperature: -9.0°C ( 16°F)
Dewpoint:-16.0°C ( 3°F) [RH = 57%]
Pressure (altimeter):30.48 inches Hg (1032.3 mb)
Winds:from the NE (50 degrees) at 7 MPH (6 knots; 3.1 m/s)
Visibility:10 or more sm (16+ km)
Ceiling:3700 feet AGL
Clouds: overcast cloud deck at 3700 feet AGL
QC Flag:automated observation with no human augmentation
Text:KHLB 210635Z AUTO 05006G12KT 10SM OVC037 M08/M16 A3048 RMK A01
Temperature: -8.0°C ( 18°F)
Dewpoint:-16.0°C ( 3°F) [RH = 53%]
Pressure (altimeter):30.48 inches Hg (1032.3 mb)
Winds:from the NE (50 degrees) at 7 MPH (6 knots; 3.1 m/s) gusting to 14 MPH (12 knots; 6.2 m/s)
Visibility:10 or more sm (16+ km)
Ceiling:3700 feet AGL
Clouds: overcast cloud deck at 3700 feet AGL
QC Flag:automated observation with no human augmentation
Text:KHLB 210615Z AUTO 05010G15KT 10SM OVC037 M08/M15 A3048 RMK A01
Temperature: -8.0°C ( 18°F)
Dewpoint:-15.0°C ( 5°F) [RH = 57%]
Pressure (altimeter):30.48 inches Hg (1032.3 mb)
Winds:from the NE (50 degrees) at 12 MPH (10 knots; 5.1 m/s) gusting to 17 MPH (15 knots; 7.7 m/s)
Visibility:10 or more sm (16+ km)
Ceiling:3700 feet AGL
Clouds: overcast cloud deck at 3700 feet AGL
QC Flag:automated observation with no human augmentation
Text:KHLB 210555Z AUTO 05010KT 10SM OVC037 M08/M15 A3048 RMK A01
Temperature: -8.0°C ( 18°F)
Dewpoint:-15.0°C ( 5°F) [RH = 57%]
Pressure (altimeter):30.48 inches Hg (1032.3 mb)
Winds:from the NE (50 degrees) at 12 MPH (10 knots; 5.1 m/s)
Visibility:10 or more sm (16+ km)
Ceiling:3700 feet AGL
Clouds: overcast cloud deck at 3700 feet AGL
QC Flag:automated observation with no human augmentation
Text:KHLB 210535Z AUTO 06010KT 10SM OVC037 M08/M15 A3049 RMK A01
Temperature: -8.0°C ( 18°F)
Dewpoint:-15.0°C ( 5°F) [RH = 57%]
Pressure (altimeter):30.49 inches Hg (1032.6 mb)
Winds:from the ENE (60 degrees) at 12 MPH (10 knots; 5.1 m/s)
Visibility:10 or more sm (16+ km)
Ceiling:3700 feet AGL
Clouds: overcast cloud deck at 3700 feet AGL
QC Flag:automated observation with no human augmentation
Text:KHLB 210515Z AUTO 06010KT 10SM OVC037 M07/M15 A3049 RMK A01
Temperature: -7.0°C ( 19°F)
Dewpoint:-15.0°C ( 5°F) [RH = 53%]
Pressure (altimeter):30.49 inches Hg (1032.6 mb)
Winds:from the ENE (60 degrees) at 12 MPH (10 knots; 5.1 m/s)
Visibility:10 or more sm (16+ km)
Ceiling:3700 feet AGL
Clouds: overcast cloud deck at 3700 feet AGL
QC Flag:automated observation with no human augmentation
Text:KHLB 210455Z AUTO 03005KT 10SM OVC038 M07/M15 A3049 RMK A01
Temperature: -7.0°C ( 19°F)
Dewpoint:-15.0°C ( 5°F) [RH = 53%]
Pressure (altimeter):30.49 inches Hg (1032.6 mb)
Winds:from the NNE (30 degrees) at 6 MPH (5 knots; 2.6 m/s)
Visibility:10 or more sm (16+ km)
Ceiling:3800 feet AGL
Clouds: overcast cloud deck at 3800 feet AGL
QC Flag:automated observation with no human augmentation
Text:KHLB 210435Z AUTO 05007KT 10SM OVC037 M07/M14 A3049 RMK A01
Temperature: -7.0°C ( 19°F)
Dewpoint:-14.0°C ( 7°F) [RH = 57%]
Pressure (altimeter):30.49 inches Hg (1032.6 mb)
Winds:from the NE (50 degrees) at 8 MPH (7 knots; 3.6 m/s)
Visibility:10 or more sm (16+ km)
Ceiling:3700 feet AGL
Clouds: overcast cloud deck at 3700 feet AGL
QC Flag:automated observation with no human augmentation
Text:KHLB 210415Z AUTO VRB04KT 10SM OVC037 M07/M15 A3049 RMK A01
Temperature: -7.0°C ( 19°F)
Dewpoint:-15.0°C ( 5°F) [RH = 53%]
Pressure (altimeter):30.49 inches Hg (1032.6 mb)
Winds:variable direction winds at 5 MPH (4 knots; 2.1 m/s)
Visibility:10 or more sm (16+ km)
Ceiling:3700 feet AGL
Clouds: overcast cloud deck at 3700 feet AGL
QC Flag:automated observation with no human augmentation
Text:KHLB 210355Z AUTO 03009KT 10SM OVC039 M07/M15 A3049 RMK A01
Temperature: -7.0°C ( 19°F)
Dewpoint:-15.0°C ( 5°F) [RH = 53%]
Pressure (altimeter):30.49 inches Hg (1032.6 mb)
Winds:from the NNE (30 degrees) at 10 MPH (9 knots; 4.6 m/s)
Visibility:10 or more sm (16+ km)
Ceiling:3900 feet AGL
Clouds: overcast cloud deck at 3900 feet AGL
QC Flag:automated observation with no human augmentation
Text:KHLB 210335Z AUTO 04008KT 10SM OVC039 M07/M15 A3049 RMK A01
Temperature: -7.0°C ( 19°F)
Dewpoint:-15.0°C ( 5°F) [RH = 53%]
Pressure (altimeter):30.49 inches Hg (1032.6 mb)
Winds:from the NE (40 degrees) at 9 MPH (8 knots; 4.1 m/s)
Visibility:10 or more sm (16+ km)
Ceiling:3900 feet AGL
Clouds: overcast cloud deck at 3900 feet AGL
QC Flag:automated observation with no human augmentation
Text:KHLB 210315Z AUTO 03007KT 360V060 10SM OVC039 M07/M15 A3049 RMK A01
Temperature: -7.0°C ( 19°F)
Dewpoint:-15.0°C ( 5°F) [RH = 53%]
Pressure (altimeter):30.49 inches Hg (1032.6 mb)
Winds:from the NNE (30 degrees) at 8 MPH (7 knots; 3.6 m/s)
Visibility:10 or more sm (16+ km)
Ceiling:3900 feet AGL
Clouds: overcast cloud deck at 3900 feet AGL
QC Flag:automated observation with no human augmentation
Text:KHLB 210255Z AUTO VRB06G12KT 10SM OVC039 M07/M15 A3049 RMK A01
Temperature: -7.0°C ( 19°F)
Dewpoint:-15.0°C ( 5°F) [RH = 53%]
Pressure (altimeter):30.49 inches Hg (1032.6 mb)
Winds:variable direction winds at 7 MPH (6 knots; 3.1 m/s) gusting to 14 MPH (12 knots; 6.2 m/s)
Visibility:10 or more sm (16+ km)
Ceiling:3900 feet AGL
Clouds: overcast cloud deck at 3900 feet AGL
QC Flag:automated observation with no human augmentation
Text:KHLB 210235Z AUTO VRB04G10KT 10SM OVC039 M07/M15 A3048 RMK A01
Temperature: -7.0°C ( 19°F)
Dewpoint:-15.0°C ( 5°F) [RH = 53%]
Pressure (altimeter):30.48 inches Hg (1032.3 mb)
Winds:variable direction winds at 5 MPH (4 knots; 2.1 m/s) gusting to 12 MPH (10 knots; 5.1 m/s)
Visibility:10 or more sm (16+ km)
Ceiling:3900 feet AGL
Clouds: overcast cloud deck at 3900 feet AGL
QC Flag:automated observation with no human augmentation
Text:KHLB 210215Z AUTO 02008KT 340V050 10SM OVC039 M07/M15 A3049 RMK A01
Temperature: -7.0°C ( 19°F)
Dewpoint:-15.0°C ( 5°F) [RH = 53%]
Pressure (altimeter):30.49 inches Hg (1032.6 mb)
Winds:from the NNE (20 degrees) at 9 MPH (8 knots; 4.1 m/s)
Visibility:10 or more sm (16+ km)
Ceiling:3900 feet AGL
Clouds: overcast cloud deck at 3900 feet AGL
QC Flag:automated observation with no human augmentation
Text:KHLB 210155Z AUTO 05010KT 10SM OVC040 M07/M14 A3049 RMK A01
Temperature: -7.0°C ( 19°F)
Dewpoint:-14.0°C ( 7°F) [RH = 57%]
Pressure (altimeter):30.49 inches Hg (1032.6 mb)
Winds:from the NE (50 degrees) at 12 MPH (10 knots; 5.1 m/s)
Visibility:10 or more sm (16+ km)
Ceiling:4000 feet AGL
Clouds: overcast cloud deck at 4000 feet AGL
QC Flag:automated observation with no human augmentation
Text:KHLB 210135Z AUTO 04006G12KT 10SM OVC040 M06/M14 A3049 RMK A01
Temperature: -6.0°C ( 21°F)
Dewpoint:-14.0°C ( 7°F) [RH = 53%]
Pressure (altimeter):30.49 inches Hg (1032.6 mb)
Winds:from the NE (40 degrees) at 7 MPH (6 knots; 3.1 m/s) gusting to 14 MPH (12 knots; 6.2 m/s)
Visibility:10 or more sm (16+ km)
Ceiling:4000 feet AGL
Clouds: overcast cloud deck at 4000 feet AGL
QC Flag:automated observation with no human augmentation
Text:KHLB 210115Z AUTO 04007KT 10SM OVC040 M06/M14 A3049 RMK A01
Temperature: -6.0°C ( 21°F)
Dewpoint:-14.0°C ( 7°F) [RH = 53%]
Pressure (altimeter):30.49 inches Hg (1032.6 mb)
Winds:from the NE (40 degrees) at 8 MPH (7 knots; 3.6 m/s)
Visibility:10 or more sm (16+ km)
Ceiling:4000 feet AGL
Clouds: overcast cloud deck at 4000 feet AGL
QC Flag:automated observation with no human augmentation
Text:KHLB 210055Z AUTO 04007KT 10SM OVC041 M06/M14 A3049 RMK A01
Temperature: -6.0°C ( 21°F)
Dewpoint:-14.0°C ( 7°F) [RH = 53%]
Pressure (altimeter):30.49 inches Hg (1032.6 mb)
Winds:from the NE (40 degrees) at 8 MPH (7 knots; 3.6 m/s)
Visibility:10 or more sm (16+ km)
Ceiling:4100 feet AGL
Clouds: overcast cloud deck at 4100 feet AGL
QC Flag:automated observation with no human augmentation
Text:KHLB 210035Z AUTO 02005G10KT 10SM OVC040 M06/M14 A3048 RMK A01
Temperature: -6.0°C ( 21°F)
Dewpoint:-14.0°C ( 7°F) [RH = 53%]
Pressure (altimeter):30.48 inches Hg (1032.3 mb)
Winds:from the NNE (20 degrees) at 6 MPH (5 knots; 2.6 m/s) gusting to 12 MPH (10 knots; 5.1 m/s)
Visibility:10 or more sm (16+ km)
Ceiling:4000 feet AGL
Clouds: overcast cloud deck at 4000 feet AGL
QC Flag:automated observation with no human augmentation
Text:KHLB 210015Z AUTO 02006KT 10SM OVC041 M06/M14 A3047 RMK A01
Temperature: -6.0°C ( 21°F)
Dewpoint:-14.0°C ( 7°F) [RH = 53%]
Pressure (altimeter):30.47 inches Hg (1031.9 mb)
Winds:from the NNE (20 degrees) at 7 MPH (6 knots; 3.1 m/s)
Visibility:10 or more sm (16+ km)
Ceiling:4100 feet AGL
Clouds: overcast cloud deck at 4100 feet AGL
QC Flag:automated observation with no human augmentation
Text:KHLB 202355Z AUTO 03007KT 10SM OVC041 M06/M14 A3046 RMK A01
Temperature: -6.0°C ( 21°F)
Dewpoint:-14.0°C ( 7°F) [RH = 53%]
Pressure (altimeter):30.46 inches Hg (1031.6 mb)
Winds:from the NNE (30 degrees) at 8 MPH (7 knots; 3.6 m/s)
Visibility:10 or more sm (16+ km)
Ceiling:4100 feet AGL
Clouds: overcast cloud deck at 4100 feet AGL
QC Flag:automated observation with no human augmentation
Text:KHLB 202335Z AUTO 04008KT 10SM OVC040 M06/M14 A3046 RMK A01
Temperature: -6.0°C ( 21°F)
Dewpoint:-14.0°C ( 7°F) [RH = 53%]
Pressure (altimeter):30.46 inches Hg (1031.6 mb)
Winds:from the NE (40 degrees) at 9 MPH (8 knots; 4.1 m/s)
Visibility:10 or more sm (16+ km)
Ceiling:4000 feet AGL
Clouds: overcast cloud deck at 4000 feet AGL
QC Flag:automated observation with no human augmentation